sensor_id;sensor_type;location;lat;lon;timestamp;temperature;humidity
40516;DHT22;26216;53.724;9.898;2023-11-21T00:01:04;11.00;99.90
40516;DHT22;26216;53.724;9.898;2023-11-21T00:03:32;10.90;99.90
40516;DHT22;26216;53.724;9.898;2023-11-21T00:05:58;10.90;99.90
40516;DHT22;26216;53.724;9.898;2023-11-21T00:08:24;10.90;99.90
40516;DHT22;26216;53.724;9.898;2023-11-21T00:10:50;10.90;99.90
40516;DHT22;26216;53.724;9.898;2023-11-21T00:13:16;10.80;99.90
40516;DHT22;26216;53.724;9.898;2023-11-21T00:15:42;10.80;99.90
40516;DHT22;26216;53.724;9.898;2023-11-21T00:18:08;10.80;99.90
40516;DHT22;26216;53.724;9.898;2023-11-21T00:20:34;10.80;99.90
40516;DHT22;26216;53.724;9.898;2023-11-21T00:22:59;10.80;99.90
40516;DHT22;26216;53.724;9.898;2023-11-21T00:25:25;10.80;99.90
40516;DHT22;26216;53.724;9.898;2023-11-21T00:27:51;10.80;99.90
40516;DHT22;26216;53.724;9.898;2023-11-21T00:30:17;10.70;99.90
40516;DHT22;26216;53.724;9.898;2023-11-21T00:32:43;10.70;99.90
40516;DHT22;26216;53.724;9.898;2023-11-21T00:35:08;10.60;99.90
40516;DHT22;26216;53.724;9.898;2023-11-21T00:37:34;10.70;99.90
40516;DHT22;26216;53.724;9.898;2023-11-21T00:40:01;10.60;99.90
40516;DHT22;26216;53.724;9.898;2023-11-21T00:42:30;10.60;99.90
40516;DHT22;26216;53.724;9.898;2023-11-21T00:44:58;10.50;99.90
40516;DHT22;26216;53.724;9.898;2023-11-21T00:47:24;10.50;99.90
40516;DHT22;26216;53.724;9.898;2023-11-21T00:49:50;10.50;99.90
40516;DHT22;26216;53.724;9.898;2023-11-21T00:52:15;10.50;99.90
40516;DHT22;26216;53.724;9.898;2023-11-21T00:54:41;10.50;99.90
40516;DHT22;26216;53.724;9.898;2023-11-21T00:57:08;10.50;99.90
40516;DHT22;26216;53.724;9.898;2023-11-21T00:59:34;10.40;99.90
40516;DHT22;26216;53.724;9.898;2023-11-21T01:02:00;10.40;99.90
40516;DHT22;26216;53.724;9.898;2023-11-21T01:04:27;10.40;99.90
40516;DHT22;26216;53.724;9.898;2023-11-21T01:06:53;10.40;99.90
40516;DHT22;26216;53.724;9.898;2023-11-21T01:09:19;10.30;99.90
40516;DHT22;26216;53.724;9.898;2023-11-21T01:11:44;10.30;99.90
40516;DHT22;26216;53.724;9.898;2023-11-21T01:14:10;10.30;99.90
40516;DHT22;26216;53.724;9.898;2023-11-21T01:16:36;10.30;99.90
40516;DHT22;26216;53.724;9.898;2023-11-21T01:19:02;10.30;99.90
40516;DHT22;26216;53.724;9.898;2023-11-21T01:21:28;10.30;99.90
40516;DHT22;26216;53.724;9.898;2023-11-21T01:23:54;10.30;99.90
40516;DHT22;26216;53.724;9.898;2023-11-21T01:26:21;10.20;99.90
40516;DHT22;26216;53.724;9.898;2023-11-21T01:28:46;10.20;99.90
40516;DHT22;26216;53.724;9.898;2023-11-21T01:31:15;10.20;99.90
40516;DHT22;26216;53.724;9.898;2023-11-21T01:33:41;10.20;99.90
40516;DHT22;26216;53.724;9.898;2023-11-21T01:36:07;10.20;99.90
40516;DHT22;26216;53.724;9.898;2023-11-21T01:38:33;10.20;99.90
40516;DHT22;26216;53.724;9.898;2023-11-21T01:40:58;10.20;99.90
40516;DHT22;26216;53.724;9.898;2023-11-21T01:43:26;10.20;99.90
40516;DHT22;26216;53.724;9.898;2023-11-21T01:45:54;10.20;99.90
40516;DHT22;26216;53.724;9.898;2023-11-21T01:48:23;10.20;99.90
40516;DHT22;26216;53.724;9.898;2023-11-21T01:50:49;10.20;99.90
40516;DHT22;26216;53.724;9.898;2023-11-21T01:53:16;10.20;99.90
40516;DHT22;26216;53.724;9.898;2023-11-21T01:55:42;10.20;99.90
40516;DHT22;26216;53.724;9.898;2023-11-21T01:58:10;10.20;99.90
40516;DHT22;26216;53.724;9.898;2023-11-21T02:00:38;10.20;99.90
40516;DHT22;26216;53.724;9.898;2023-11-21T02:03:04;10.10;99.90
40516;DHT22;26216;53.724;9.898;2023-11-21T02:05:30;10.10;99.90
40516;DHT22;26216;53.724;9.898;2023-11-21T02:07:55;10.10;99.90
40516;DHT22;26216;53.724;9.898;2023-11-21T02:10:22;10.10;99.90
40516;DHT22;26216;53.724;9.898;2023-11-21T02:12:51;10.10;99.90
40516;DHT22;26216;53.724;9.898;2023-11-21T02:15:17;10.00;99.90
40516;DHT22;26216;53.724;9.898;2023-11-21T02:17:47;10.00;99.90
40516;DHT22;26216;53.724;9.898;2023-11-21T02:20:17;10.00;99.90
40516;DHT22;26216;53.724;9.898;2023-11-21T02:22:53;10.00;99.90
40516;DHT22;26216;53.724;9.898;2023-11-21T02:25:32;10.00;99.90
40516;DHT22;26216;53.724;9.898;2023-11-21T02:28:00;10.00;99.90
40516;DHT22;26216;53.724;9.898;2023-11-21T02:30:26;9.90;99.90
40516;DHT22;26216;53.724;9.898;2023-11-21T02:32:54;9.90;99.90
40516;DHT22;26216;53.724;9.898;2023-11-21T02:35:20;9.90;99.90
40516;DHT22;26216;53.724;9.898;2023-11-21T02:37:50;9.90;99.90
40516;DHT22;26216;53.724;9.898;2023-11-21T02:40:15;9.90;99.90
40516;DHT22;26216;53.724;9.898;2023-11-21T02:42:49;9.80;99.90
40516;DHT22;26216;53.724;9.898;2023-11-21T02:45:18;9.80;99.90
40516;DHT22;26216;53.724;9.898;2023-11-21T02:47:46;9.80;99.90
40516;DHT22;26216;53.724;9.898;2023-11-21T02:50:12;9.80;99.90
40516;DHT22;26216;53.724;9.898;2023-11-21T02:52:39;9.80;99.90
40516;DHT22;26216;53.724;9.898;2023-11-21T02:55:08;9.80;99.90
40516;DHT22;26216;53.724;9.898;2023-11-21T02:57:34;9.80;99.90
40516;DHT22;26216;53.724;9.898;2023-11-21T03:00:00;9.80;99.90
40516;DHT22;26216;53.724;9.898;2023-11-21T03:02:26;9.80;99.90
40516;DHT22;26216;53.724;9.898;2023-11-21T03:04:51;9.80;99.90
40516;DHT22;26216;53.724;9.898;2023-11-21T03:07:18;9.80;99.90
40516;DHT22;26216;53.724;9.898;2023-11-21T03:09:47;9.80;99.90
40516;DHT22;26216;53.724;9.898;2023-11-21T03:12:13;9.80;99.90
40516;DHT22;26216;53.724;9.898;2023-11-21T03:14:39;9.80;99.90
40516;DHT22;26216;53.724;9.898;2023-11-21T03:17:10;9.80;99.90
40516;DHT22;26216;53.724;9.898;2023-11-21T03:19:36;9.80;99.90
40516;DHT22;26216;53.724;9.898;2023-11-21T03:22:01;9.80;99.90
40516;DHT22;26216;53.724;9.898;2023-11-21T03:24:27;9.70;99.90
40516;DHT22;26216;53.724;9.898;2023-11-21T03:26:53;9.70;99.90
40516;DHT22;26216;53.724;9.898;2023-11-21T03:29:19;9.70;99.90
40516;DHT22;26216;53.724;9.898;2023-11-21T03:31:44;9.70;99.90
40516;DHT22;26216;53.724;9.898;2023-11-21T03:34:19;9.70;99.90
40516;DHT22;26216;53.724;9.898;2023-11-21T03:36:45;9.70;99.90
40516;DHT22;26216;53.724;9.898;2023-11-21T03:39:11;9.70;99.90
40516;DHT22;26216;53.724;9.898;2023-11-21T03:41:37;9.70;99.90
40516;DHT22;26216;53.724;9.898;2023-11-21T03:44:03;9.70;99.90
40516;DHT22;26216;53.724;9.898;2023-11-21T03:46:29;9.70;99.90
40516;DHT22;26216;53.724;9.898;2023-11-21T03:48:55;9.70;99.90
40516;DHT22;26216;53.724;9.898;2023-11-21T03:51:21;9.70;99.90
40516;DHT22;26216;53.724;9.898;2023-11-21T03:53:47;9.70;99.90
40516;DHT22;26216;53.724;9.898;2023-11-21T03:56:14;9.70;99.90
40516;DHT22;26216;53.724;9.898;2023-11-21T03:58:39;9.70;99.90
40516;DHT22;26216;53.724;9.898;2023-11-21T04:01:05;9.70;99.90
40516;DHT22;26216;53.724;9.898;2023-11-21T04:03:31;9.70;99.90
40516;DHT22;26216;53.724;9.898;2023-11-21T04:05:57;9.70;99.90
40516;DHT22;26216;53.724;9.898;2023-11-21T04:08:22;9.70;99.90
40516;DHT22;26216;53.724;9.898;2023-11-21T04:10:48;9.70;99.90
40516;DHT22;26216;53.724;9.898;2023-11-21T04:13:14;9.70;99.90
40516;DHT22;26216;53.724;9.898;2023-11-21T04:15:40;9.70;99.90
40516;DHT22;26216;53.724;9.898;2023-11-21T04:18:05;9.70;99.90
40516;DHT22;26216;53.724;9.898;2023-11-21T04:20:31;9.70;99.90
40516;DHT22;26216;53.724;9.898;2023-11-21T04:22:57;9.70;99.90
40516;DHT22;26216;53.724;9.898;2023-11-21T04:25:23;9.70;99.90
40516;DHT22;26216;53.724;9.898;2023-11-21T04:27:49;9.70;99.90
40516;DHT22;26216;53.724;9.898;2023-11-21T04:30:15;9.70;99.90
40516;DHT22;26216;53.724;9.898;2023-11-21T04:32:41;9.70;99.90
40516;DHT22;26216;53.724;9.898;2023-11-21T04:35:09;9.70;99.90
40516;DHT22;26216;53.724;9.898;2023-11-21T04:37:35;9.70;99.90
40516;DHT22;26216;53.724;9.898;2023-11-21T04:40:02;9.70;99.90
40516;DHT22;26216;53.724;9.898;2023-11-21T04:42:35;9.70;99.90
40516;DHT22;26216;53.724;9.898;2023-11-21T04:45:07;9.70;99.90
40516;DHT22;26216;53.724;9.898;2023-11-21T04:47:37;9.70;99.90
40516;DHT22;26216;53.724;9.898;2023-11-21T04:50:03;9.70;99.90
40516;DHT22;26216;53.724;9.898;2023-11-21T04:52:29;9.70;99.90
40516;DHT22;26216;53.724;9.898;2023-11-21T04:54:55;9.70;99.90
40516;DHT22;26216;53.724;9.898;2023-11-21T04:57:23;9.70;99.90
40516;DHT22;26216;53.724;9.898;2023-11-21T04:59:49;9.60;99.90
40516;DHT22;26216;53.724;9.898;2023-11-21T05:02:16;9.70;99.90
40516;DHT22;26216;53.724;9.898;2023-11-21T05:04:42;9.70;99.90
40516;DHT22;26216;53.724;9.898;2023-11-21T05:07:08;9.70;99.90
40516;DHT22;26216;53.724;9.898;2023-11-21T05:09:34;9.70;99.90
40516;DHT22;26216;53.724;9.898;2023-11-21T05:12:01;9.60;99.90
40516;DHT22;26216;53.724;9.898;2023-11-21T05:14:27;9.70;99.90
40516;DHT22;26216;53.724;9.898;2023-11-21T05:16:53;9.70;99.90
40516;DHT22;26216;53.724;9.898;2023-11-21T05:19:18;9.60;99.90
40516;DHT22;26216;53.724;9.898;2023-11-21T05:21:44;9.60;99.90
40516;DHT22;26216;53.724;9.898;2023-11-21T05:24:10;9.70;99.90
40516;DHT22;26216;53.724;9.898;2023-11-21T05:26:36;9.60;99.90
40516;DHT22;26216;53.724;9.898;2023-11-21T05:29:02;9.60;99.90
40516;DHT22;26216;53.724;9.898;2023-11-21T05:31:28;9.70;99.90
40516;DHT22;26216;53.724;9.898;2023-11-21T05:33:54;9.70;99.90
40516;DHT22;26216;53.724;9.898;2023-11-21T05:36:19;9.60;99.90
40516;DHT22;26216;53.724;9.898;2023-11-21T05:38:45;9.70;99.90
40516;DHT22;26216;53.724;9.898;2023-11-21T05:41:11;9.70;99.90
40516;DHT22;26216;53.724;9.898;2023-11-21T05:43:39;9.60;99.90
40516;DHT22;26216;53.724;9.898;2023-11-21T05:46:05;9.70;99.90
40516;DHT22;26216;53.724;9.898;2023-11-21T05:48:32;9.70;99.90
40516;DHT22;26216;53.724;9.898;2023-11-21T05:50:58;9.70;99.90
40516;DHT22;26216;53.724;9.898;2023-11-21T05:53:24;9.70;99.90
40516;DHT22;26216;53.724;9.898;2023-11-21T05:55:50;9.70;99.90
40516;DHT22;26216;53.724;9.898;2023-11-21T05:58:16;9.70;99.90
40516;DHT22;26216;53.724;9.898;2023-11-21T06:00:42;9.70;99.90
40516;DHT22;26216;53.724;9.898;2023-11-21T06:03:07;9.70;99.90
40516;DHT22;26216;53.724;9.898;2023-11-21T06:05:33;9.70;99.90
40516;DHT22;26216;53.724;9.898;2023-11-21T06:07:59;9.70;99.90
40516;DHT22;26216;53.724;9.898;2023-11-21T06:10:26;9.70;99.90
40516;DHT22;26216;53.724;9.898;2023-11-21T06:12:53;9.70;99.90
40516;DHT22;26216;53.724;9.898;2023-11-21T06:15:19;9.70;99.90
40516;DHT22;26216;53.724;9.898;2023-11-21T06:17:46;9.70;99.90
40516;DHT22;26216;53.724;9.898;2023-11-21T06:20:15;9.70;99.90
40516;DHT22;26216;53.724;9.898;2023-11-21T06:22:47;9.70;99.90
40516;DHT22;26216;53.724;9.898;2023-11-21T06:25:14;9.70;99.90
40516;DHT22;26216;53.724;9.898;2023-11-21T06:27:41;9.70;99.90
40516;DHT22;26216;53.724;9.898;2023-11-21T06:30:08;9.70;99.90
40516;DHT22;26216;53.724;9.898;2023-11-21T06:32:38;9.70;99.90
40516;DHT22;26216;53.724;9.898;2023-11-21T06:35:05;9.70;99.90
40516;DHT22;26216;53.724;9.898;2023-11-21T06:37:32;9.70;99.90
40516;DHT22;26216;53.724;9.898;2023-11-21T06:39:59;9.70;99.90
40516;DHT22;26216;53.724;9.898;2023-11-21T06:42:25;9.70;99.90
40516;DHT22;26216;53.724;9.898;2023-11-21T06:44:52;9.70;99.90
40516;DHT22;26216;53.724;9.898;2023-11-21T06:47:19;9.70;99.90
40516;DHT22;26216;53.724;9.898;2023-11-21T06:49:51;9.70;99.90
40516;DHT22;26216;53.724;9.898;2023-11-21T06:52:17;9.70;99.90
40516;DHT22;26216;53.724;9.898;2023-11-21T06:54:43;9.70;99.90
40516;DHT22;26216;53.724;9.898;2023-11-21T06:57:11;9.70;99.90
40516;DHT22;26216;53.724;9.898;2023-11-21T06:59:37;9.70;99.90
40516;DHT22;26216;53.724;9.898;2023-11-21T07:02:03;9.70;99.90
40516;DHT22;26216;53.724;9.898;2023-11-21T07:04:30;9.70;99.90
40516;DHT22;26216;53.724;9.898;2023-11-21T07:06:56;9.70;99.90
40516;DHT22;26216;53.724;9.898;2023-11-21T07:09:21;9.70;99.90
40516;DHT22;26216;53.724;9.898;2023-11-21T07:11:50;9.70;99.90
40516;DHT22;26216;53.724;9.898;2023-11-21T07:14:16;9.70;99.90
40516;DHT22;26216;53.724;9.898;2023-11-21T07:16:42;9.70;99.90
40516;DHT22;26216;53.724;9.898;2023-11-21T07:19:08;9.70;99.90
40516;DHT22;26216;53.724;9.898;2023-11-21T07:21:35;9.70;99.90
40516;DHT22;26216;53.724;9.898;2023-11-21T07:24:02;9.60;99.90
40516;DHT22;26216;53.724;9.898;2023-11-21T07:26:28;9.70;99.90
40516;DHT22;26216;53.724;9.898;2023-11-21T07:28:54;9.70;99.90
40516;DHT22;26216;53.724;9.898;2023-11-21T07:31:22;9.70;99.90
40516;DHT22;26216;53.724;9.898;2023-11-21T07:33:48;9.60;99.90
40516;DHT22;26216;53.724;9.898;2023-11-21T07:36:14;9.70;99.90
40516;DHT22;26216;53.724;9.898;2023-11-21T07:38:42;9.70;99.90
40516;DHT22;26216;53.724;9.898;2023-11-21T07:41:08;9.70;99.90
40516;DHT22;26216;53.724;9.898;2023-11-21T07:43:35;9.60;99.90
40516;DHT22;26216;53.724;9.898;2023-11-21T07:46:02;9.70;99.90
40516;DHT22;26216;53.724;9.898;2023-11-21T07:48:34;9.70;99.90
40516;DHT22;26216;53.724;9.898;2023-11-21T07:51:02;9.60;99.90
40516;DHT22;26216;53.724;9.898;2023-11-21T07:53:29;9.70;99.90
40516;DHT22;26216;53.724;9.898;2023-11-21T07:56:05;9.70;99.90
40516;DHT22;26216;53.724;9.898;2023-11-21T07:58:31;9.70;99.90
40516;DHT22;26216;53.724;9.898;2023-11-21T08:01:04;9.70;99.90
40516;DHT22;26216;53.724;9.898;2023-11-21T08:03:31;9.70;99.90
40516;DHT22;26216;53.724;9.898;2023-11-21T08:05:59;9.70;99.90
40516;DHT22;26216;53.724;9.898;2023-11-21T08:08:25;9.70;99.90
40516;DHT22;26216;53.724;9.898;2023-11-21T08:10:52;9.60;99.90
40516;DHT22;26216;53.724;9.898;2023-11-21T08:13:25;9.60;99.90
40516;DHT22;26216;53.724;9.898;2023-11-21T08:15:54;9.70;99.90
40516;DHT22;26216;53.724;9.898;2023-11-21T08:18:20;9.60;99.90
40516;DHT22;26216;53.724;9.898;2023-11-21T08:20:46;9.60;99.90
40516;DHT22;26216;53.724;9.898;2023-11-21T08:23:16;9.60;99.90
40516;DHT22;26216;53.724;9.898;2023-11-21T08:25:45;9.60;99.90
40516;DHT22;26216;53.724;9.898;2023-11-21T08:28:12;9.70;99.90
40516;DHT22;26216;53.724;9.898;2023-11-21T08:30:40;9.70;99.90
40516;DHT22;26216;53.724;9.898;2023-11-21T08:33:07;9.70;99.90
40516;DHT22;26216;53.724;9.898;2023-11-21T08:35:34;9.70;99.90
40516;DHT22;26216;53.724;9.898;2023-11-21T08:38:00;9.70;99.90
40516;DHT22;26216;53.724;9.898;2023-11-21T08:40:26;9.70;99.90
40516;DHT22;26216;53.724;9.898;2023-11-21T08:42:52;9.70;99.90
40516;DHT22;26216;53.724;9.898;2023-11-21T08:45:19;9.70;99.90
40516;DHT22;26216;53.724;9.898;2023-11-21T08:47:45;9.80;99.90
40516;DHT22;26216;53.724;9.898;2023-11-21T08:50:11;9.80;99.90
40516;DHT22;26216;53.724;9.898;2023-11-21T08:52:39;9.80;99.90
40516;DHT22;26216;53.724;9.898;2023-11-21T08:55:06;9.80;99.90
40516;DHT22;26216;53.724;9.898;2023-11-21T08:57:38;9.80;99.90
40516;DHT22;26216;53.724;9.898;2023-11-21T09:00:06;9.80;99.90
40516;DHT22;26216;53.724;9.898;2023-11-21T09:02:38;9.80;99.90
40516;DHT22;26216;53.724;9.898;2023-11-21T09:05:05;9.80;99.90
40516;DHT22;26216;53.724;9.898;2023-11-21T09:07:31;9.90;99.90
40516;DHT22;26216;53.724;9.898;2023-11-21T09:09:57;9.90;99.90
40516;DHT22;26216;53.724;9.898;2023-11-21T09:12:23;9.90;99.90
40516;DHT22;26216;53.724;9.898;2023-11-21T09:14:50;9.90;99.90
40516;DHT22;26216;53.724;9.898;2023-11-21T09:17:16;10.00;99.90
40516;DHT22;26216;53.724;9.898;2023-11-21T09:19:42;10.00;99.90
40516;DHT22;26216;53.724;9.898;2023-11-21T09:22:18;10.00;99.90
40516;DHT22;26216;53.724;9.898;2023-11-21T09:24:44;10.00;99.90
40516;DHT22;26216;53.724;9.898;2023-11-21T09:27:10;10.10;99.90
40516;DHT22;26216;53.724;9.898;2023-11-21T09:29:36;10.10;99.90
40516;DHT22;26216;53.724;9.898;2023-11-21T09:32:08;10.10;99.90
40516;DHT22;26216;53.724;9.898;2023-11-21T09:34:34;10.10;99.90
40516;DHT22;26216;53.724;9.898;2023-11-21T09:37:04;10.10;99.90
40516;DHT22;26216;53.724;9.898;2023-11-21T09:39:32;10.10;99.90
40516;DHT22;26216;53.724;9.898;2023-11-21T09:42:04;10.10;99.90
40516;DHT22;26216;53.724;9.898;2023-11-21T09:44:36;10.10;99.90
40516;DHT22;26216;53.724;9.898;2023-11-21T09:47:09;10.10;99.90
40516;DHT22;26216;53.724;9.898;2023-11-21T09:49:37;10.10;99.90
40516;DHT22;26216;53.724;9.898;2023-11-21T09:52:04;10.10;99.90
40516;DHT22;26216;53.724;9.898;2023-11-21T09:54:32;10.10;99.90
40516;DHT22;26216;53.724;9.898;2023-11-21T09:56:59;10.10;99.90
40516;DHT22;26216;53.724;9.898;2023-11-21T09:59:31;10.10;99.90
40516;DHT22;26216;53.724;9.898;2023-11-21T10:02:02;10.00;99.90
40516;DHT22;26216;53.724;9.898;2023-11-21T10:04:28;10.00;99.90
40516;DHT22;26216;53.724;9.898;2023-11-21T10:06:54;10.00;99.90
40516;DHT22;26216;53.724;9.898;2023-11-21T10:09:21;9.90;99.90
40516;DHT22;26216;53.724;9.898;2023-11-21T10:11:49;9.90;99.90
40516;DHT22;26216;53.724;9.898;2023-11-21T10:14:19;9.90;99.90
40516;DHT22;26216;53.724;9.898;2023-11-21T10:16:50;9.90;99.90
40516;DHT22;26216;53.724;9.898;2023-11-21T10:19:17;9.90;99.90
40516;DHT22;26216;53.724;9.898;2023-11-21T10:21:44;9.90;99.90
40516;DHT22;26216;53.724;9.898;2023-11-21T10:24:10;9.90;99.90
40516;DHT22;26216;53.724;9.898;2023-11-21T10:26:38;9.90;99.90
40516;DHT22;26216;53.724;9.898;2023-11-21T10:29:04;9.90;99.90
40516;DHT22;26216;53.724;9.898;2023-11-21T10:31:30;9.90;99.90
40516;DHT22;26216;53.724;9.898;2023-11-21T10:34:15;9.90;99.90
40516;DHT22;26216;53.724;9.898;2023-11-21T10:36:41;9.90;99.90
40516;DHT22;26216;53.724;9.898;2023-11-21T10:39:07;9.90;99.90
40516;DHT22;26216;53.724;9.898;2023-11-21T10:41:33;9.90;99.90
40516;DHT22;26216;53.724;9.898;2023-11-21T10:44:01;9.90;99.90
40516;DHT22;26216;53.724;9.898;2023-11-21T10:46:29;9.90;99.90
40516;DHT22;26216;53.724;9.898;2023-11-21T10:48:56;9.90;99.90
40516;DHT22;26216;53.724;9.898;2023-11-21T10:51:22;9.90;99.90
40516;DHT22;26216;53.724;9.898;2023-11-21T10:53:51;9.90;99.90
40516;DHT22;26216;53.724;9.898;2023-11-21T10:56:19;9.90;99.90
40516;DHT22;26216;53.724;9.898;2023-11-21T10:58:49;9.90;99.90
40516;DHT22;26216;53.724;9.898;2023-11-21T11:01:18;9.90;99.90
40516;DHT22;26216;53.724;9.898;2023-11-21T11:03:46;9.80;99.90
40516;DHT22;26216;53.724;9.898;2023-11-21T11:06:13;9.90;99.90
40516;DHT22;26216;53.724;9.898;2023-11-21T11:08:40;9.80;99.90
40516;DHT22;26216;53.724;9.898;2023-11-21T11:11:07;9.80;99.90
40516;DHT22;26216;53.724;9.898;2023-11-21T11:13:33;9.80;99.90
40516;DHT22;26216;53.724;9.898;2023-11-21T11:16:00;9.80;99.90
40516;DHT22;26216;53.724;9.898;2023-11-21T11:18:33;9.80;99.90
40516;DHT22;26216;53.724;9.898;2023-11-21T11:21:34;9.80;99.90
40516;DHT22;26216;53.724;9.898;2023-11-21T11:30:47;9.80;99.90
40516;DHT22;26216;53.724;9.898;2023-11-21T11:36:05;9.80;99.90
40516;DHT22;26216;53.724;9.898;2023-11-21T11:38:34;9.80;99.90
40516;DHT22;26216;53.724;9.898;2023-11-21T11:41:03;9.80;99.90
40516;DHT22;26216;53.724;9.898;2023-11-21T11:43:30;9.80;99.90
40516;DHT22;26216;53.724;9.898;2023-11-21T11:46:10;9.70;99.90
40516;DHT22;26216;53.724;9.898;2023-11-21T11:48:42;9.70;99.90
40516;DHT22;26216;53.724;9.898;2023-11-21T11:51:12;9.70;99.90
40516;DHT22;26216;53.724;9.898;2023-11-21T11:53:47;9.70;99.90
40516;DHT22;26216;53.724;9.898;2023-11-21T11:56:30;9.70;99.90
40516;DHT22;26216;53.724;9.898;2023-11-21T11:59:02;9.70;99.90
40516;DHT22;26216;53.724;9.898;2023-11-21T12:01:30;9.70;99.90
40516;DHT22;26216;53.724;9.898;2023-11-21T12:06:52;9.60;99.90
40516;DHT22;26216;53.724;9.898;2023-11-21T12:09:22;9.60;99.90
40516;DHT22;26216;53.724;9.898;2023-11-21T12:11:50;9.60;99.90
40516;DHT22;26216;53.724;9.898;2023-11-21T12:14:16;9.60;99.90
40516;DHT22;26216;53.724;9.898;2023-11-21T12:16:43;9.50;99.90
40516;DHT22;26216;53.724;9.898;2023-11-21T12:19:13;9.50;99.90
40516;DHT22;26216;53.724;9.898;2023-11-21T12:21:39;9.50;99.90
40516;DHT22;26216;53.724;9.898;2023-11-21T12:24:07;9.50;99.90
40516;DHT22;26216;53.724;9.898;2023-11-21T12:26:35;9.50;99.90
40516;DHT22;26216;53.724;9.898;2023-11-21T12:29:02;9.50;99.90
40516;DHT22;26216;53.724;9.898;2023-11-21T12:31:30;9.50;99.90
40516;DHT22;26216;53.724;9.898;2023-11-21T12:33:56;9.50;99.90
40516;DHT22;26216;53.724;9.898;2023-11-21T12:36:23;9.50;99.90
40516;DHT22;26216;53.724;9.898;2023-11-21T12:38:51;9.50;99.90
40516;DHT22;26216;53.724;9.898;2023-11-21T12:41:16;9.50;99.90
40516;DHT22;26216;53.724;9.898;2023-11-21T12:43:43;9.50;99.90
40516;DHT22;26216;53.724;9.898;2023-11-21T12:46:11;9.50;99.90
40516;DHT22;26216;53.724;9.898;2023-11-21T12:48:41;9.40;99.90
40516;DHT22;26216;53.724;9.898;2023-11-21T12:51:08;9.40;99.90
40516;DHT22;26216;53.724;9.898;2023-11-21T12:53:36;9.40;99.90
40516;DHT22;26216;53.724;9.898;2023-11-21T12:56:13;9.40;99.90
40516;DHT22;26216;53.724;9.898;2023-11-21T12:58:44;9.40;99.90
40516;DHT22;26216;53.724;9.898;2023-11-21T13:01:13;9.30;99.90
40516;DHT22;26216;53.724;9.898;2023-11-21T13:03:46;9.30;99.90
40516;DHT22;26216;53.724;9.898;2023-11-21T13:06:15;9.30;99.90
40516;DHT22;26216;53.724;9.898;2023-11-21T13:08:44;9.30;99.90
40516;DHT22;26216;53.724;9.898;2023-11-21T13:11:11;9.30;99.90
40516;DHT22;26216;53.724;9.898;2023-11-21T13:13:37;9.30;99.90
40516;DHT22;26216;53.724;9.898;2023-11-21T13:16:06;9.30;99.90
40516;DHT22;26216;53.724;9.898;2023-11-21T13:18:34;9.30;99.90
40516;DHT22;26216;53.724;9.898;2023-11-21T13:21:03;9.20;99.90
40516;DHT22;26216;53.724;9.898;2023-11-21T13:23:40;9.20;99.90
40516;DHT22;26216;53.724;9.898;2023-11-21T13:26:07;9.20;99.90
40516;DHT22;26216;53.724;9.898;2023-11-21T13:28:35;9.20;99.90
40516;DHT22;26216;53.724;9.898;2023-11-21T13:31:04;9.20;99.90
40516;DHT22;26216;53.724;9.898;2023-11-21T13:33:35;9.20;99.90
40516;DHT22;26216;53.724;9.898;2023-11-21T13:36:05;9.10;99.90
40516;DHT22;26216;53.724;9.898;2023-11-21T13:38:33;9.20;99.90
40516;DHT22;26216;53.724;9.898;2023-11-21T13:41:01;9.10;99.90
40516;DHT22;26216;53.724;9.898;2023-11-21T13:43:28;9.10;99.90
40516;DHT22;26216;53.724;9.898;2023-11-21T13:45:54;9.10;99.90
40516;DHT22;26216;53.724;9.898;2023-11-21T13:48:42;9.10;99.90
40516;DHT22;26216;53.724;9.898;2023-11-21T13:51:13;9.10;99.90
40516;DHT22;26216;53.724;9.898;2023-11-21T13:53:47;9.10;99.90
40516;DHT22;26216;53.724;9.898;2023-11-21T13:56:18;9.10;99.90
40516;DHT22;26216;53.724;9.898;2023-11-21T13:58:51;9.10;99.90
40516;DHT22;26216;53.724;9.898;2023-11-21T14:01:24;9.00;99.90
40516;DHT22;26216;53.724;9.898;2023-11-21T14:04:10;9.00;99.90
40516;DHT22;26216;53.724;9.898;2023-11-21T14:06:49;9.00;99.90
40516;DHT22;26216;53.724;9.898;2023-11-21T14:09:18;9.00;99.90
40516;DHT22;26216;53.724;9.898;2023-11-21T14:12:01;9.00;99.90
40516;DHT22;26216;53.724;9.898;2023-11-21T14:14:32;8.90;99.90
40516;DHT22;26216;53.724;9.898;2023-11-21T14:16:58;8.90;99.90
40516;DHT22;26216;53.724;9.898;2023-11-21T14:19:32;8.90;99.90
40516;DHT22;26216;53.724;9.898;2023-11-21T14:21:59;8.80;99.90
40516;DHT22;26216;53.724;9.898;2023-11-21T14:24:25;8.80;99.90
40516;DHT22;26216;53.724;9.898;2023-11-21T14:26:51;8.80;99.90
40516;DHT22;26216;53.724;9.898;2023-11-21T14:29:18;8.80;99.90
40516;DHT22;26216;53.724;9.898;2023-11-21T14:31:49;8.70;99.90
40516;DHT22;26216;53.724;9.898;2023-11-21T14:34:22;8.70;99.90
40516;DHT22;26216;53.724;9.898;2023-11-21T14:36:48;8.70;99.90
40516;DHT22;26216;53.724;9.898;2023-11-21T14:39:14;8.60;99.90
40516;DHT22;26216;53.724;9.898;2023-11-21T14:41:52;8.60;99.90
40516;DHT22;26216;53.724;9.898;2023-11-21T14:44:18;8.60;99.90
40516;DHT22;26216;53.724;9.898;2023-11-21T14:46:45;8.60;99.90
40516;DHT22;26216;53.724;9.898;2023-11-21T14:49:13;8.60;99.90
40516;DHT22;26216;53.724;9.898;2023-11-21T14:51:46;8.60;99.90
40516;DHT22;26216;53.724;9.898;2023-11-21T14:54:32;8.60;99.90
40516;DHT22;26216;53.724;9.898;2023-11-21T14:57:12;8.60;99.90
40516;DHT22;26216;53.724;9.898;2023-11-21T14:59:45;8.60;99.90
40516;DHT22;26216;53.724;9.898;2023-11-21T15:02:18;8.60;99.90
40516;DHT22;26216;53.724;9.898;2023-11-21T15:04:48;8.60;99.90
40516;DHT22;26216;53.724;9.898;2023-11-21T15:07:17;8.60;99.90
40516;DHT22;26216;53.724;9.898;2023-11-21T15:09:43;8.60;99.90
40516;DHT22;26216;53.724;9.898;2023-11-21T15:12:11;8.60;99.90
40516;DHT22;26216;53.724;9.898;2023-11-21T15:14:45;8.60;99.90
40516;DHT22;26216;53.724;9.898;2023-11-21T15:17:15;8.60;99.90
40516;DHT22;26216;53.724;9.898;2023-11-21T15:19:48;8.60;99.90
40516;DHT22;26216;53.724;9.898;2023-11-21T15:22:14;8.60;99.90
40516;DHT22;26216;53.724;9.898;2023-11-21T15:24:41;8.60;99.90
40516;DHT22;26216;53.724;9.898;2023-11-21T15:27:10;8.60;99.90
40516;DHT22;26216;53.724;9.898;2023-11-21T15:29:37;8.60;99.90
40516;DHT22;26216;53.724;9.898;2023-11-21T15:32:03;8.60;99.90
40516;DHT22;26216;53.724;9.898;2023-11-21T15:34:29;8.60;99.90
40516;DHT22;26216;53.724;9.898;2023-11-21T15:36:56;8.50;99.90
40516;DHT22;26216;53.724;9.898;2023-11-21T15:39:22;8.60;99.90
40516;DHT22;26216;53.724;9.898;2023-11-21T15:41:54;8.60;99.90
40516;DHT22;26216;53.724;9.898;2023-11-21T15:44:20;8.50;99.90
40516;DHT22;26216;53.724;9.898;2023-11-21T15:46:46;8.50;99.90
40516;DHT22;26216;53.724;9.898;2023-11-21T15:49:13;8.50;99.90
40516;DHT22;26216;53.724;9.898;2023-11-21T15:51:45;8.50;99.90
40516;DHT22;26216;53.724;9.898;2023-11-21T15:54:21;8.50;99.90
40516;DHT22;26216;53.724;9.898;2023-11-21T15:56:51;8.50;99.90
40516;DHT22;26216;53.724;9.898;2023-11-21T15:59:18;8.50;99.90